sensor_id;sensor_type;location;lat;lon;timestamp;P1;durP1;ratioP1;P2;durP2;ratioP2
16025;SDS011;8117;52.488;13.460;2023-09-18T00:00:37;5.23;;;3.80;;
16025;SDS011;8117;52.488;13.460;2023-09-18T00:33:49;5.60;;;3.65;;
16025;SDS011;8117;52.488;13.460;2023-09-18T00:36:16;7.93;;;4.47;;
16025;SDS011;8117;52.488;13.460;2023-09-18T00:38:42;4.27;;;3.30;;
16025;SDS011;8117;52.488;13.460;2023-09-18T00:41:09;5.10;;;3.93;;
16025;SDS011;8117;52.488;13.460;2023-09-18T00:43:36;7.10;;;3.43;;
16025;SDS011;8117;52.488;13.460;2023-09-18T00:46:03;4.93;;;3.90;;
16025;SDS011;8117;52.488;13.460;2023-09-18T00:48:30;4.40;;;3.78;;
16025;SDS011;8117;52.488;13.460;2023-09-18T00:51:04;6.00;;;3.67;;
16025;SDS011;8117;52.488;13.460;2023-09-18T00:53:31;6.80;;;4.18;;
16025;SDS011;8117;52.488;13.460;2023-09-18T00:55:58;5.20;;;3.78;;
16025;SDS011;8117;52.488;13.460;2023-09-18T00:58:26;5.55;;;3.65;;
16025;SDS011;8117;52.488;13.460;2023-09-18T01:00:53;6.38;;;3.55;;
16025;SDS011;8117;52.488;13.460;2023-09-18T01:03:19;4.63;;;3.58;;
16025;SDS011;8117;52.488;13.460;2023-09-18T01:05:47;5.35;;;3.55;;
16025;SDS011;8117;52.488;13.460;2023-09-18T01:08:16;4.60;;;3.70;;
16025;SDS011;8117;52.488;13.460;2023-09-18T01:10:45;4.90;;;4.18;;
16025;SDS011;8117;52.488;13.460;2023-09-18T01:13:15;4.07;;;3.25;;
16025;SDS011;8117;52.488;13.460;2023-09-18T01:15:48;4.88;;;4.13;;
16025;SDS011;8117;52.488;13.460;2023-09-18T01:18:17;5.75;;;3.35;;
16025;SDS011;8117;52.488;13.460;2023-09-18T01:20:44;3.83;;;3.22;;
16025;SDS011;8117;52.488;13.460;2023-09-18T01:23:12;4.50;;;3.70;;
16025;SDS011;8117;52.488;13.460;2023-09-18T01:25:39;6.55;;;3.22;;
16025;SDS011;8117;52.488;13.460;2023-09-18T01:28:05;4.68;;;3.95;;
16025;SDS011;8117;52.488;13.460;2023-09-18T01:30:32;4.85;;;3.40;;
16025;SDS011;8117;52.488;13.460;2023-09-18T01:32:59;4.93;;;3.72;;
16025;SDS011;8117;52.488;13.460;2023-09-18T01:35:28;4.93;;;3.65;;
16025;SDS011;8117;52.488;13.460;2023-09-18T01:37:55;4.82;;;3.72;;
16025;SDS011;8117;52.488;13.460;2023-09-18T01:40:23;3.55;;;3.22;;
16025;SDS011;8117;52.488;13.460;2023-09-18T01:42:51;4.28;;;3.50;;
16025;SDS011;8117;52.488;13.460;2023-09-18T01:45:17;5.23;;;3.70;;
16025;SDS011;8117;52.488;13.460;2023-09-18T01:47:44;5.27;;;3.67;;
16025;SDS011;8117;52.488;13.460;2023-09-18T01:50:11;5.00;;;3.63;;
16025;SDS011;8117;52.488;13.460;2023-09-18T01:52:38;5.40;;;3.97;;
16025;SDS011;8117;52.488;13.460;2023-09-18T01:55:05;6.17;;;3.70;;
16025;SDS011;8117;52.488;13.460;2023-09-18T01:57:34;4.33;;;3.30;;
16025;SDS011;8117;52.488;13.460;2023-09-18T02:00:03;4.37;;;3.73;;
16025;SDS011;8117;52.488;13.460;2023-09-18T02:02:33;4.47;;;3.57;;
16025;SDS011;8117;52.488;13.460;2023-09-18T02:05:01;4.50;;;3.33;;
16025;SDS011;8117;52.488;13.460;2023-09-18T02:07:28;4.03;;;3.43;;
16025;SDS011;8117;52.488;13.460;2023-09-18T02:09:56;4.60;;;3.60;;
16025;SDS011;8117;52.488;13.460;2023-09-18T02:12:25;5.07;;;3.70;;
16025;SDS011;8117;52.488;13.460;2023-09-18T02:14:53;5.70;;;4.10;;
16025;SDS011;8117;52.488;13.460;2023-09-18T02:17:22;6.13;;;3.90;;
16025;SDS011;8117;52.488;13.460;2023-09-18T02:19:49;5.53;;;4.10;;
16025;SDS011;8117;52.488;13.460;2023-09-18T02:22:15;4.43;;;4.03;;
16025;SDS011;8117;52.488;13.460;2023-09-18T02:24:42;4.70;;;3.23;;
16025;SDS011;8117;52.488;13.460;2023-09-18T02:27:09;4.30;;;3.37;;
16025;SDS011;8117;52.488;13.460;2023-09-18T02:29:36;5.73;;;3.37;;
16025;SDS011;8117;52.488;13.460;2023-09-18T02:32:05;5.33;;;3.50;;
16025;SDS011;8117;52.488;13.460;2023-09-18T02:34:31;10.35;;;4.30;;
16025;SDS011;8117;52.488;13.460;2023-09-18T02:36:58;4.93;;;3.57;;
16025;SDS011;8117;52.488;13.460;2023-09-18T02:39:25;4.80;;;3.37;;
16025;SDS011;8117;52.488;13.460;2023-09-18T02:41:51;5.27;;;3.43;;
16025;SDS011;8117;52.488;13.460;2023-09-18T02:44:18;3.87;;;2.90;;
16025;SDS011;8117;52.488;13.460;2023-09-18T02:46:45;4.57;;;2.90;;
16025;SDS011;8117;52.488;13.460;2023-09-18T02:49:13;5.13;;;3.30;;
16025;SDS011;8117;52.488;13.460;2023-09-18T02:51:40;3.90;;;3.17;;
16025;SDS011;8117;52.488;13.460;2023-09-18T02:54:06;4.40;;;3.10;;
16025;SDS011;8117;52.488;13.460;2023-09-18T02:56:33;5.83;;;4.07;;
16025;SDS011;8117;52.488;13.460;2023-09-18T02:59:00;5.97;;;3.30;;
16025;SDS011;8117;52.488;13.460;2023-09-18T03:01:26;4.30;;;3.65;;
16025;SDS011;8117;52.488;13.460;2023-09-18T03:03:53;5.90;;;3.33;;
16025;SDS011;8117;52.488;13.460;2023-09-18T03:06:21;7.47;;;4.23;;
16025;SDS011;8117;52.488;13.460;2023-09-18T03:08:48;4.90;;;3.50;;
16025;SDS011;8117;52.488;13.460;2023-09-18T03:11:15;5.13;;;3.73;;
16025;SDS011;8117;52.488;13.460;2023-09-18T03:13:44;4.30;;;3.17;;
16025;SDS011;8117;52.488;13.460;2023-09-18T03:16:12;4.90;;;3.57;;
16025;SDS011;8117;52.488;13.460;2023-09-18T03:18:39;3.80;;;3.40;;
16025;SDS011;8117;52.488;13.460;2023-09-18T03:21:05;4.43;;;3.25;;
16025;SDS011;8117;52.488;13.460;2023-09-18T03:23:34;4.55;;;3.53;;
16025;SDS011;8117;52.488;13.460;2023-09-18T03:26:00;6.67;;;3.87;;
16025;SDS011;8117;52.488;13.460;2023-09-18T03:28:27;4.20;;;3.08;;
16025;SDS011;8117;52.488;13.460;2023-09-18T03:30:54;3.93;;;3.33;;
16025;SDS011;8117;52.488;13.460;2023-09-18T03:33:20;3.97;;;3.40;;
16025;SDS011;8117;52.488;13.460;2023-09-18T03:35:47;3.88;;;3.30;;
16025;SDS011;8117;52.488;13.460;2023-09-18T03:38:14;4.95;;;3.60;;
16025;SDS011;8117;52.488;13.460;2023-09-18T03:40:43;4.15;;;2.90;;
16025;SDS011;8117;52.488;13.460;2023-09-18T03:43:10;4.55;;;3.17;;
16025;SDS011;8117;52.488;13.460;2023-09-18T03:45:37;5.00;;;3.60;;
16025;SDS011;8117;52.488;13.460;2023-09-18T03:48:06;5.63;;;3.10;;
16025;SDS011;8117;52.488;13.460;2023-09-18T03:50:34;4.63;;;3.50;;
16025;SDS011;8117;52.488;13.460;2023-09-18T03:53:01;6.17;;;3.10;;
16025;SDS011;8117;52.488;13.460;2023-09-18T03:55:28;4.53;;;3.42;;
16025;SDS011;8117;52.488;13.460;2023-09-18T03:57:56;5.25;;;4.10;;
16025;SDS011;8117;52.488;13.460;2023-09-18T04:00:23;4.37;;;3.37;;
16025;SDS011;8117;52.488;13.460;2023-09-18T04:02:49;4.67;;;3.87;;
16025;SDS011;8117;52.488;13.460;2023-09-18T04:05:16;5.20;;;4.10;;
16025;SDS011;8117;52.488;13.460;2023-09-18T04:07:43;6.27;;;4.10;;
16025;SDS011;8117;52.488;13.460;2023-09-18T04:10:11;4.00;;;3.03;;
16025;SDS011;8117;52.488;13.460;2023-09-18T04:12:44;5.90;;;3.30;;
16025;SDS011;8117;52.488;13.460;2023-09-18T04:15:13;5.23;;;3.23;;
16025;SDS011;8117;52.488;13.460;2023-09-18T04:17:42;4.37;;;3.50;;
16025;SDS011;8117;52.488;13.460;2023-09-18T04:20:09;4.57;;;3.40;;
16025;SDS011;8117;52.488;13.460;2023-09-18T04:22:42;5.67;;;4.03;;
16025;SDS011;8117;52.488;13.460;2023-09-18T04:25:10;5.87;;;3.63;;
16025;SDS011;8117;52.488;13.460;2023-09-18T04:27:36;3.87;;;3.07;;
16025;SDS011;8117;52.488;13.460;2023-09-18T04:30:03;6.17;;;3.70;;
16025;SDS011;8117;52.488;13.460;2023-09-18T04:32:31;4.27;;;3.00;;
16025;SDS011;8117;52.488;13.460;2023-09-18T04:35:00;4.93;;;3.20;;
16025;SDS011;8117;52.488;13.460;2023-09-18T04:37:27;5.80;;;3.37;;
16025;SDS011;8117;52.488;13.460;2023-09-18T04:39:54;4.70;;;3.20;;
16025;SDS011;8117;52.488;13.460;2023-09-18T04:42:20;5.60;;;3.53;;
16025;SDS011;8117;52.488;13.460;2023-09-18T04:44:47;6.53;;;3.73;;
16025;SDS011;8117;52.488;13.460;2023-09-18T04:47:14;4.60;;;3.70;;
16025;SDS011;8117;52.488;13.460;2023-09-18T04:49:42;4.03;;;3.00;;
16025;SDS011;8117;52.488;13.460;2023-09-18T04:52:10;5.47;;;3.60;;
16025;SDS011;8117;52.488;13.460;2023-09-18T04:54:37;5.87;;;3.27;;
16025;SDS011;8117;52.488;13.460;2023-09-18T04:57:04;4.43;;;3.57;;
16025;SDS011;8117;52.488;13.460;2023-09-18T04:59:37;5.37;;;3.50;;
16025;SDS011;8117;52.488;13.460;2023-09-18T05:02:03;4.27;;;3.50;;
16025;SDS011;8117;52.488;13.460;2023-09-18T05:04:32;3.57;;;3.17;;
16025;SDS011;8117;52.488;13.460;2023-09-18T05:07:00;3.87;;;2.87;;
16025;SDS011;8117;52.488;13.460;2023-09-18T05:09:47;5.43;;;3.20;;
16025;SDS011;8117;52.488;13.460;2023-09-18T05:15:38;5.83;;;3.40;;
16025;SDS011;8117;52.488;13.460;2023-09-18T05:21:46;5.30;;;3.00;;
16025;SDS011;8117;52.488;13.460;2023-09-18T05:24:19;4.23;;;3.47;;
16025;SDS011;8117;52.488;13.460;2023-09-18T05:26:52;5.47;;;3.27;;
16025;SDS011;8117;52.488;13.460;2023-09-18T05:29:19;4.53;;;3.13;;
16025;SDS011;8117;52.488;13.460;2023-09-18T05:31:46;4.37;;;3.10;;
16025;SDS011;8117;52.488;13.460;2023-09-18T05:34:15;4.38;;;3.10;;
16025;SDS011;8117;52.488;13.460;2023-09-18T05:36:44;4.33;;;3.80;;
16025;SDS011;8117;52.488;13.460;2023-09-18T05:39:11;4.73;;;3.53;;
16025;SDS011;8117;52.488;13.460;2023-09-18T05:41:39;3.97;;;3.13;;
16025;SDS011;8117;52.488;13.460;2023-09-18T05:44:06;4.60;;;3.00;;
16025;SDS011;8117;52.488;13.460;2023-09-18T05:46:34;3.70;;;2.97;;
16025;SDS011;8117;52.488;13.460;2023-09-18T05:49:01;4.70;;;3.20;;
16025;SDS011;8117;52.488;13.460;2023-09-18T05:51:29;4.37;;;3.30;;
16025;SDS011;8117;52.488;13.460;2023-09-18T05:53:56;4.27;;;2.97;;
16025;SDS011;8117;52.488;13.460;2023-09-18T05:56:23;3.83;;;3.03;;
16025;SDS011;8117;52.488;13.460;2023-09-18T05:58:51;4.93;;;3.13;;
16025;SDS011;8117;52.488;13.460;2023-09-18T06:01:20;3.67;;;2.87;;
16025;SDS011;8117;52.488;13.460;2023-09-18T06:03:47;4.17;;;3.20;;
16025;SDS011;8117;52.488;13.460;2023-09-18T06:06:14;4.20;;;3.23;;
16025;SDS011;8117;52.488;13.460;2023-09-18T06:08:40;4.37;;;3.10;;
16025;SDS011;8117;52.488;13.460;2023-09-18T06:11:07;3.83;;;2.93;;
16025;SDS011;8117;52.488;13.460;2023-09-18T06:13:34;5.30;;;3.43;;
16025;SDS011;8117;52.488;13.460;2023-09-18T06:16:04;4.70;;;2.37;;
16025;SDS011;8117;52.488;13.460;2023-09-18T06:18:33;5.53;;;3.63;;
16025;SDS011;8117;52.488;13.460;2023-09-18T06:21:03;3.97;;;2.93;;
16025;SDS011;8117;52.488;13.460;2023-09-18T06:23:33;3.67;;;3.10;;
16025;SDS011;8117;52.488;13.460;2023-09-18T06:26:02;4.50;;;3.17;;
16025;SDS011;8117;52.488;13.460;2023-09-18T06:28:30;5.30;;;3.47;;
16025;SDS011;8117;52.488;13.460;2023-09-18T06:31:09;3.73;;;3.13;;
16025;SDS011;8117;52.488;13.460;2023-09-18T06:33:38;4.33;;;3.50;;
16025;SDS011;8117;52.488;13.460;2023-09-18T06:36:05;3.17;;;2.77;;
16025;SDS011;8117;52.488;13.460;2023-09-18T06:38:32;3.57;;;2.80;;
16025;SDS011;8117;52.488;13.460;2023-09-18T06:40:58;3.97;;;3.10;;
16025;SDS011;8117;52.488;13.460;2023-09-18T06:43:25;3.30;;;2.80;;
16025;SDS011;8117;52.488;13.460;2023-09-18T06:45:54;6.07;;;3.47;;
16025;SDS011;8117;52.488;13.460;2023-09-18T06:48:24;4.27;;;2.83;;
16025;SDS011;8117;52.488;13.460;2023-09-18T06:50:51;3.50;;;2.97;;
16025;SDS011;8117;52.488;13.460;2023-09-18T06:53:21;3.63;;;2.60;;
16025;SDS011;8117;52.488;13.460;2023-09-18T06:55:47;4.37;;;2.47;;
16025;SDS011;8117;52.488;13.460;2023-09-18T06:58:14;3.38;;;2.75;;
16025;SDS011;8117;52.488;13.460;2023-09-18T07:00:41;2.50;;;2.27;;
16025;SDS011;8117;52.488;13.460;2023-09-18T07:03:08;3.00;;;2.70;;
16025;SDS011;8117;52.488;13.460;2023-09-18T07:05:36;3.80;;;2.83;;
16025;SDS011;8117;52.488;13.460;2023-09-18T07:08:03;4.10;;;3.20;;
16025;SDS011;8117;52.488;13.460;2023-09-18T07:10:37;4.57;;;3.45;;
16025;SDS011;8117;52.488;13.460;2023-09-18T07:13:05;2.40;;;2.20;;
16025;SDS011;8117;52.488;13.460;2023-09-18T07:15:31;4.55;;;2.92;;
16025;SDS011;8117;52.488;13.460;2023-09-18T07:18:01;3.97;;;3.35;;
16025;SDS011;8117;52.488;13.460;2023-09-18T07:20:29;4.20;;;2.90;;
16025;SDS011;8117;52.488;13.460;2023-09-18T07:22:58;3.83;;;3.10;;
16025;SDS011;8117;52.488;13.460;2023-09-18T07:25:25;5.00;;;3.17;;
16025;SDS011;8117;52.488;13.460;2023-09-18T07:27:52;5.47;;;2.90;;
16025;SDS011;8117;52.488;13.460;2023-09-18T07:30:20;3.27;;;2.80;;
16025;SDS011;8117;52.488;13.460;2023-09-18T07:32:47;5.35;;;3.95;;
16025;SDS011;8117;52.488;13.460;2023-09-18T07:35:14;4.22;;;3.10;;
16025;SDS011;8117;52.488;13.460;2023-09-18T07:37:41;3.75;;;3.10;;
16025;SDS011;8117;52.488;13.460;2023-09-18T07:40:14;3.47;;;2.80;;
16025;SDS011;8117;52.488;13.460;2023-09-18T07:42:42;4.23;;;2.70;;
16025;SDS011;8117;52.488;13.460;2023-09-18T07:45:10;4.23;;;2.37;;
16025;SDS011;8117;52.488;13.460;2023-09-18T07:47:42;4.70;;;2.43;;
16025;SDS011;8117;52.488;13.460;2023-09-18T07:50:14;3.20;;;2.50;;
16025;SDS011;8117;52.488;13.460;2023-09-18T07:52:42;2.57;;;2.30;;
16025;SDS011;8117;52.488;13.460;2023-09-18T07:55:11;2.50;;;2.30;;
16025;SDS011;8117;52.488;13.460;2023-09-18T07:57:41;2.20;;;2.00;;
16025;SDS011;8117;52.488;13.460;2023-09-18T08:00:10;3.97;;;2.30;;
16025;SDS011;8117;52.488;13.460;2023-09-18T08:02:38;2.57;;;2.10;;
16025;SDS011;8117;52.488;13.460;2023-09-18T08:05:08;3.92;;;2.72;;
16025;SDS011;8117;52.488;13.460;2023-09-18T08:07:35;3.80;;;2.53;;
16025;SDS011;8117;52.488;13.460;2023-09-18T08:10:02;2.43;;;2.23;;
16025;SDS011;8117;52.488;13.460;2023-09-18T08:12:33;2.40;;;2.20;;
16025;SDS011;8117;52.488;13.460;2023-09-18T08:15:02;3.72;;;2.58;;
16025;SDS011;8117;52.488;13.460;2023-09-18T08:17:32;2.87;;;2.20;;
16025;SDS011;8117;52.488;13.460;2023-09-18T08:19:59;4.63;;;2.57;;
16025;SDS011;8117;52.488;13.460;2023-09-18T08:22:25;2.67;;;2.33;;
16025;SDS011;8117;52.488;13.460;2023-09-18T08:24:52;3.92;;;2.20;;
16025;SDS011;8117;52.488;13.460;2023-09-18T08:27:20;4.15;;;2.83;;
16025;SDS011;8117;52.488;13.460;2023-09-18T08:36:09;3.15;;;2.30;;
16025;SDS011;8117;52.488;13.460;2023-09-18T08:38:42;3.45;;;2.53;;
16025;SDS011;8117;52.488;13.460;2023-09-18T08:41:11;4.00;;;2.50;;
16025;SDS011;8117;52.488;13.460;2023-09-18T08:46:27;2.72;;;2.20;;
16025;SDS011;8117;52.488;13.460;2023-09-18T08:48:53;3.35;;;2.67;;
16025;SDS011;8117;52.488;13.460;2023-09-18T08:51:23;3.08;;;2.33;;
16025;SDS011;8117;52.488;13.460;2023-09-18T08:53:50;2.00;;;1.80;;
16025;SDS011;8117;52.488;13.460;2023-09-18T08:56:17;3.42;;;2.67;;
16025;SDS011;8117;52.488;13.460;2023-09-18T08:58:44;3.75;;;2.53;;
16025;SDS011;8117;52.488;13.460;2023-09-18T09:01:11;4.20;;;2.28;;
16025;SDS011;8117;52.488;13.460;2023-09-18T09:03:43;2.10;;;1.88;;
16025;SDS011;8117;52.488;13.460;2023-09-18T09:06:13;3.05;;;2.33;;
16025;SDS011;8117;52.488;13.460;2023-09-18T09:08:49;2.72;;;2.08;;
16025;SDS011;8117;52.488;13.460;2023-09-18T09:11:16;2.75;;;1.88;;
16025;SDS011;8117;52.488;13.460;2023-09-18T09:13:44;3.00;;;2.65;;
16025;SDS011;8117;52.488;13.460;2023-09-18T09:16:11;2.28;;;1.90;;
16025;SDS011;8117;52.488;13.460;2023-09-18T09:18:47;2.85;;;2.53;;
16025;SDS011;8117;52.488;13.460;2023-09-18T09:21:17;2.97;;;2.53;;
16025;SDS011;8117;52.488;13.460;2023-09-18T09:23:46;2.65;;;2.10;;
16025;SDS011;8117;52.488;13.460;2023-09-18T09:26:17;2.90;;;2.55;;
16025;SDS011;8117;52.488;13.460;2023-09-18T09:28:45;2.95;;;2.30;;
16025;SDS011;8117;52.488;13.460;2023-09-18T09:31:22;3.05;;;2.13;;
16025;SDS011;8117;52.488;13.460;2023-09-18T09:33:52;5.78;;;2.13;;
16025;SDS011;8117;52.488;13.460;2023-09-18T09:36:19;3.42;;;2.95;;
16025;SDS011;8117;52.488;13.460;2023-09-18T09:38:47;3.38;;;2.22;;
16025;SDS011;8117;52.488;13.460;2023-09-18T09:41:17;3.25;;;2.13;;
16025;SDS011;8117;52.488;13.460;2023-09-18T09:43:53;2.65;;;2.40;;
16025;SDS011;8117;52.488;13.460;2023-09-18T09:46:21;2.40;;;1.95;;
16025;SDS011;8117;52.488;13.460;2023-09-18T09:48:59;2.05;;;1.70;;
16025;SDS011;8117;52.488;13.460;2023-09-18T09:51:29;2.22;;;1.95;;
16025;SDS011;8117;52.488;13.460;2023-09-18T09:53:57;2.22;;;2.00;;
16025;SDS011;8117;52.488;13.460;2023-09-18T09:56:41;2.60;;;1.90;;
16025;SDS011;8117;52.488;13.460;2023-09-18T09:59:10;2.38;;;2.03;;
16025;SDS011;8117;52.488;13.460;2023-09-18T10:01:41;1.73;;;1.63;;
16025;SDS011;8117;52.488;13.460;2023-09-18T10:04:10;2.85;;;2.15;;
16025;SDS011;8117;52.488;13.460;2023-09-18T10:06:40;2.33;;;1.77;;
16025;SDS011;8117;52.488;13.460;2023-09-18T10:09:10;2.53;;;1.98;;
16025;SDS011;8117;52.488;13.460;2023-09-18T10:11:41;2.90;;;2.20;;
16025;SDS011;8117;52.488;13.460;2023-09-18T10:14:19;2.88;;;2.20;;
16025;SDS011;8117;52.488;13.460;2023-09-18T10:16:49;2.88;;;2.28;;
16025;SDS011;8117;52.488;13.460;2023-09-18T10:19:20;2.28;;;2.05;;
16025;SDS011;8117;52.488;13.460;2023-09-18T10:21:57;2.70;;;1.90;;
16025;SDS011;8117;52.488;13.460;2023-09-18T10:24:33;2.50;;;2.30;;
16025;SDS011;8117;52.488;13.460;2023-09-18T10:27:07;2.38;;;1.80;;
16025;SDS011;8117;52.488;13.460;2023-09-18T10:29:41;2.97;;;2.33;;
16025;SDS011;8117;52.488;13.460;2023-09-18T10:32:17;4.15;;;2.78;;
16025;SDS011;8117;52.488;13.460;2023-09-18T10:34:46;2.38;;;1.83;;
16025;SDS011;8117;52.488;13.460;2023-09-18T10:37:14;2.70;;;2.25;;
16025;SDS011;8117;52.488;13.460;2023-09-18T10:39:43;2.15;;;1.90;;
16025;SDS011;8117;52.488;13.460;2023-09-18T10:42:12;3.53;;;1.80;;
16025;SDS011;8117;52.488;13.460;2023-09-18T10:44:43;2.08;;;1.88;;
16025;SDS011;8117;52.488;13.460;2023-09-18T10:47:10;1.80;;;1.70;;
16025;SDS011;8117;52.488;13.460;2023-09-18T10:49:42;3.08;;;2.20;;
16025;SDS011;8117;52.488;13.460;2023-09-18T10:52:16;3.05;;;2.50;;
16025;SDS011;8117;52.488;13.460;2023-09-18T10:54:50;1.77;;;1.50;;
16025;SDS011;8117;52.488;13.460;2023-09-18T10:57:20;1.90;;;1.75;;
16025;SDS011;8117;52.488;13.460;2023-09-18T10:59:53;1.77;;;1.40;;
16025;SDS011;8117;52.488;13.460;2023-09-18T11:02:20;1.80;;;1.70;;
16025;SDS011;8117;52.488;13.460;2023-09-18T11:04:50;2.00;;;1.80;;
16025;SDS011;8117;52.488;13.460;2023-09-18T11:07:19;1.95;;;1.80;;
16025;SDS011;8117;52.488;13.460;2023-09-18T11:09:49;2.38;;;1.83;;
16025;SDS011;8117;52.488;13.460;2023-09-18T11:12:41;3.30;;;1.65;;
16025;SDS011;8117;52.488;13.460;2023-09-18T11:18:02;2.15;;;1.92;;
16025;SDS011;8117;52.488;13.460;2023-09-18T11:20:31;2.22;;;2.00;;
16025;SDS011;8117;52.488;13.460;2023-09-18T11:23:10;2.92;;;2.38;;
16025;SDS011;8117;52.488;13.460;2023-09-18T11:26:14;2.00;;;1.80;;
16025;SDS011;8117;52.488;13.460;2023-09-18T11:28:42;2.60;;;1.85;;
16025;SDS011;8117;52.488;13.460;2023-09-18T11:31:15;3.20;;;2.35;;
16025;SDS011;8117;52.488;13.460;2023-09-18T11:33:49;3.00;;;1.95;;
16025;SDS011;8117;52.488;13.460;2023-09-18T11:36:48;2.78;;;1.98;;
16025;SDS011;8117;52.488;13.460;2023-09-18T11:39:34;5.25;;;2.00;;
16025;SDS011;8117;52.488;13.460;2023-09-18T11:42:09;2.75;;;2.03;;
16025;SDS011;8117;52.488;13.460;2023-09-18T11:44:44;2.33;;;1.70;;
16025;SDS011;8117;52.488;13.460;2023-09-18T11:47:18;5.15;;;1.85;;
16025;SDS011;8117;52.488;13.460;2023-09-18T11:49:54;2.33;;;2.08;;
16025;SDS011;8117;52.488;13.460;2023-09-18T11:52:33;2.75;;;1.98;;
16025;SDS011;8117;52.488;13.460;2023-09-18T11:55:01;2.15;;;1.95;;
16025;SDS011;8117;52.488;13.460;2023-09-18T11:57:32;2.42;;;1.80;;
16025;SDS011;8117;52.488;13.460;2023-09-18T12:00:17;2.38;;;1.70;;
16025;SDS011;8117;52.488;13.460;2023-09-18T12:06:02;3.72;;;2.35;;
16025;SDS011;8117;52.488;13.460;2023-09-18T12:08:48;2.10;;;1.60;;
16025;SDS011;8117;52.488;13.460;2023-09-18T12:11:20;4.53;;;2.17;;
16025;SDS011;8117;52.488;13.460;2023-09-18T12:13:55;6.32;;;2.08;;
16025;SDS011;8117;52.488;13.460;2023-09-18T12:16:42;2.83;;;2.20;;
16025;SDS011;8117;52.488;13.460;2023-09-18T12:19:16;3.35;;;2.25;;
16025;SDS011;8117;52.488;13.460;2023-09-18T12:21:54;2.15;;;1.95;;
16025;SDS011;8117;52.488;13.460;2023-09-18T12:24:29;3.78;;;2.53;;
16025;SDS011;8117;52.488;13.460;2023-09-18T12:26:59;3.55;;;1.77;;
16025;SDS011;8117;52.488;13.460;2023-09-18T12:29:37;2.55;;;1.88;;
16025;SDS011;8117;52.488;13.460;2023-09-18T12:32:13;2.78;;;1.95;;
16025;SDS011;8117;52.488;13.460;2023-09-18T12:34:45;3.17;;;2.58;;
16025;SDS011;8117;52.488;13.460;2023-09-18T12:37:13;2.47;;;1.75;;
16025;SDS011;8117;52.488;13.460;2023-09-18T12:39:41;2.17;;;1.98;;
16025;SDS011;8117;52.488;13.460;2023-09-18T12:42:13;2.60;;;2.20;;
16025;SDS011;8117;52.488;13.460;2023-09-18T12:44:58;3.00;;;1.90;;
16025;SDS011;8117;52.488;13.460;2023-09-18T12:47:26;3.67;;;2.15;;
16025;SDS011;8117;52.488;13.460;2023-09-18T12:50:01;4.63;;;2.28;;
16025;SDS011;8117;52.488;13.460;2023-09-18T12:52:34;3.55;;;2.38;;
16025;SDS011;8117;52.488;13.460;2023-09-18T12:55:06;3.15;;;1.98;;
16025;SDS011;8117;52.488;13.460;2023-09-18T12:58:01;3.72;;;3.03;;
16025;SDS011;8117;52.488;13.460;2023-09-18T13:00:44;2.53;;;2.17;;
16025;SDS011;8117;52.488;13.460;2023-09-18T13:03:12;2.28;;;1.83;;
16025;SDS011;8117;52.488;13.460;2023-09-18T13:05:46;4.30;;;2.05;;
16025;SDS011;8117;52.488;13.460;2023-09-18T13:08:14;4.13;;;2.17;;
16025;SDS011;8117;52.488;13.460;2023-09-18T13:11:05;4.47;;;2.40;;
16025;SDS011;8117;52.488;13.460;2023-09-18T13:13:59;2.00;;;1.80;;
16025;SDS011;8117;52.488;13.460;2023-09-18T13:16:38;2.22;;;1.90;;
16025;SDS011;8117;52.488;13.460;2023-09-18T13:19:47;3.45;;;1.60;;
16025;SDS011;8117;52.488;13.460;2023-09-18T13:22:47;2.33;;;2.13;;
16025;SDS011;8117;52.488;13.460;2023-09-18T13:25:34;2.65;;;1.50;;
16025;SDS011;8117;52.488;13.460;2023-09-18T13:28:18;2.85;;;2.45;;
16025;SDS011;8117;52.488;13.460;2023-09-18T13:31:09;1.67;;;1.58;;
16025;SDS011;8117;52.488;13.460;2023-09-18T13:34:04;2.08;;;1.88;;
16025;SDS011;8117;52.488;13.460;2023-09-18T13:36:36;1.73;;;1.55;;
16025;SDS011;8117;52.488;13.460;2023-09-18T13:39:09;7.03;;;2.17;;
16025;SDS011;8117;52.488;13.460;2023-09-18T13:41:43;3.22;;;1.70;;
16025;SDS011;8117;52.488;13.460;2023-09-18T13:44:17;2.63;;;2.00;;
16025;SDS011;8117;52.488;13.460;2023-09-18T13:47:03;3.08;;;2.08;;
16025;SDS011;8117;52.488;13.460;2023-09-18T13:49:33;1.98;;;1.80;;
16025;SDS011;8117;52.488;13.460;2023-09-18T13:52:11;3.08;;;1.90;;
16025;SDS011;8117;52.488;13.460;2023-09-18T13:54:46;4.82;;;2.10;;
16025;SDS011;8117;52.488;13.460;2023-09-18T13:57:16;2.58;;;1.98;;
16025;SDS011;8117;52.488;13.460;2023-09-18T13:59:55;3.08;;;2.08;;
16025;SDS011;8117;52.488;13.460;2023-09-18T14:02:33;4.60;;;2.08;;
16025;SDS011;8117;52.488;13.460;2023-09-18T14:05:20;4.25;;;2.17;;
16025;SDS011;8117;52.488;13.460;2023-09-18T14:07:49;2.38;;;1.95;;
16025;SDS011;8117;52.488;13.460;2023-09-18T14:10:18;5.75;;;3.10;;
16025;SDS011;8117;52.488;13.460;2023-09-18T14:12:50;2.45;;;1.90;;
16025;SDS011;8117;52.488;13.460;2023-09-18T14:15:18;4.65;;;2.78;;
16025;SDS011;8117;52.488;13.460;2023-09-18T14:21:34;4.65;;;1.98;;
16025;SDS011;8117;52.488;13.460;2023-09-18T14:24:14;2.92;;;2.22;;
16025;SDS011;8117;52.488;13.460;2023-09-18T14:27:07;2.97;;;2.40;;
16025;SDS011;8117;52.488;13.460;2023-09-18T14:29:37;3.42;;;1.92;;
16025;SDS011;8117;52.488;13.460;2023-09-18T14:32:21;2.58;;;2.08;;
16025;SDS011;8117;52.488;13.460;2023-09-18T14:38:13;3.20;;;2.00;;
16025;SDS011;8117;52.488;13.460;2023-09-18T14:41:01;5.32;;;2.53;;
16025;SDS011;8117;52.488;13.460;2023-09-18T14:43:40;2.58;;;2.10;;
16025;SDS011;8117;52.488;13.460;2023-09-18T14:46:30;2.72;;;1.75;;
16025;SDS011;8117;52.488;13.460;2023-09-18T14:49:16;1.80;;;1.08;;
16025;SDS011;8117;52.488;13.460;2023-09-18T14:51:45;1.85;;;1.55;;
16025;SDS011;8117;52.488;13.460;2023-09-18T14:54:24;1.70;;;1.30;;
16025;SDS011;8117;52.488;13.460;2023-09-18T14:57:05;3.03;;;1.38;;
16025;SDS011;8117;52.488;13.460;2023-09-18T14:59:38;3.33;;;1.27;;
16025;SDS011;8117;52.488;13.460;2023-09-18T15:02:07;1.92;;;1.35;;
16025;SDS011;8117;52.488;13.460;2023-09-18T15:04:40;3.25;;;1.08;;
16025;SDS011;8117;52.488;13.460;2023-09-18T15:07:24;1.27;;;1.10;;
16025;SDS011;8117;52.488;13.460;2023-09-18T15:10:01;1.40;;;1.10;;
16025;SDS011;8117;52.488;13.460;2023-09-18T15:12:30;3.67;;;1.17;;
16025;SDS011;8117;52.488;13.460;2023-09-18T15:15:07;2.63;;;1.27;;
16025;SDS011;8117;52.488;13.460;2023-09-18T15:17:39;1.58;;;1.20;;
16025;SDS011;8117;52.488;13.460;2023-09-18T15:23:21;1.73;;;1.00;;
16025;SDS011;8117;52.488;13.460;2023-09-18T15:25:57;2.88;;;1.52;;
16025;SDS011;8117;52.488;13.460;2023-09-18T15:28:33;1.10;;;0.90;;
16025;SDS011;8117;52.488;13.460;2023-09-18T15:31:27;1.42;;;0.75;;
16025;SDS011;8117;52.488;13.460;2023-09-18T15:34:13;0.90;;;0.80;;
16025;SDS011;8117;52.488;13.460;2023-09-18T15:36:56;1.20;;;1.00;;
16025;SDS011;8117;52.488;13.460;2023-09-18T15:39:36;1.40;;;0.98;;
16025;SDS011;8117;52.488;13.460;2023-09-18T15:45:10;1.63;;;0.98;;
16025;SDS011;8117;52.488;13.460;2023-09-18T15:51:20;2.28;;;1.60;;
16025;SDS011;8117;52.488;13.460;2023-09-18T15:54:08;1.77;;;1.00;;
16025;SDS011;8117;52.488;13.460;2023-09-18T15:56:49;1.30;;;1.20;;
16025;SDS011;8117;52.488;13.460;2023-09-18T15:59:29;1.80;;;1.30;;
16025;SDS011;8117;52.488;13.460;2023-09-18T16:02:05;2.60;;;1.40;;
16025;SDS011;8117;52.488;13.460;2023-09-18T16:05:01;2.78;;;0.90;;
16025;SDS011;8117;52.488;13.460;2023-09-18T16:07:30;1.33;;;0.90;;
16025;SDS011;8117;52.488;13.460;2023-09-18T16:10:35;1.83;;;1.20;;
16025;SDS011;8117;52.488;13.460;2023-09-18T16:13:16;1.83;;;1.33;;
16025;SDS011;8117;52.488;13.460;2023-09-18T16:19:11;2.05;;;1.17;;
16025;SDS011;8117;52.488;13.460;2023-09-18T16:21:45;6.85;;;2.55;;
16025;SDS011;8117;52.488;13.460;2023-09-18T16:24:16;3.63;;;1.10;;
16025;SDS011;8117;52.488;13.460;2023-09-18T16:26:54;1.45;;;1.13;;